Time;durP1;ratioP1;P1;durP2;ratioP2;P2;SDS_P1;SDS_P2;PMS_P1;PMS_P2;Temp;Humidity;BMP_temperature;BMP_pressure;BME280_temperature;BME280_humidity;BME280_pressure;Samples;Min_cycle;Max_cycle;Signal;HPM_P1;HPM_P2
2021/05/10 00:00:17;;;;;;;7.50;4.67;;;;;;;7.71;62.67;101491.88;1697016;83;21539;-61
2021/05/10 00:02:45;;;;;;;8.93;5.17;;;;;;;7.65;62.84;101485.63;1761269;79;21177;-61
2021/05/10 00:05:12;;;;;;;9.53;4.60;;;;;;;7.63;63.04;101486.58;1718558;82;21145;-62
2021/05/10 00:07:40;;;;;;;9.53;5.53;;;;;;;7.66;62.94;101488.64;1732170;81;21852;-60
2021/05/10 00:10:10;;;;;;;7.75;4.42;;;;;;;7.64;62.72;101482.17;1727318;80;21120;-61
2021/05/10 00:12:37;;;;;;;9.48;5.17;;;;;;;7.63;62.64;101481.33;1721107;82;21224;-62
2021/05/10 00:15:07;;;;;;;10.08;4.70;;;;;;;7.60;62.78;101480.17;1732983;80;21227;-61
2021/05/10 00:17:34;;;;;;;11.97;5.58;;;;;;;7.59;62.84;101484.17;1721061;82;21157;-62
2021/05/10 00:20:02;;;;;;;9.75;4.92;;;;;;;7.54;62.91;101487.02;1729301;80;21164;-62
2021/05/10 00:22:29;;;;;;;9.13;5.00;;;;;;;7.48;63.06;101485.16;1689953;83;21139;-60
2021/05/10 00:24:58;;;;;;;9.75;5.05;;;;;;;7.44;63.11;101484.47;1708425;81;21189;-59
2021/05/10 00:27:27;;;;;;;10.38;5.25;;;;;;;7.37;63.14;101489.62;1729189;80;21225;-64
2021/05/10 00:29:56;;;;;;;9.58;4.67;;;;;;;7.29;63.55;101484.75;1733787;81;21196;-63
2021/05/10 00:32:24;;;;;;;8.53;5.00;;;;;;;7.23;63.92;101487.22;1732526;80;21200;-60
2021/05/10 00:34:54;;;;;;;7.78;4.65;;;;;;;7.26;64.02;101479.66;1725002;82;21188;-64
2021/05/10 00:37:21;;;;;;;9.78;5.20;;;;;;;7.35;63.86;101479.70;1722205;82;21210;-59
2021/05/10 00:39:49;;;;;;;9.05;5.53;;;;;;;7.41;63.61;101478.94;1718511;82;21651;-59
2021/05/10 00:42:16;;;;;;;10.00;5.25;;;;;;;7.44;63.56;101487.09;1731314;80;21189;-61
2021/05/10 00:44:44;;;;;;;11.40;6.58;;;;;;;7.43;63.58;101490.17;1738447;80;21292;-60
2021/05/10 00:47:11;;;;;;;10.43;5.95;;;;;;;7.41;63.71;101495.09;1724852;81;21512;-61
2021/05/10 00:49:39;;;;;;;11.75;7.12;;;;;;;7.36;63.89;101495.78;1726418;81;21355;-60
2021/05/10 00:52:07;;;;;;;10.43;6.10;;;;;;;7.34;63.85;101502.86;1730750;82;21204;-60
2021/05/10 00:54:34;;;;;;;10.93;6.72;;;;;;;7.28;63.73;101505.77;1720029;82;21217;-62
2021/05/10 00:57:01;;;;;;;11.45;7.00;;;;;;;7.22;63.69;101493.36;1724264;80;21176;-60
2021/05/10 00:59:29;;;;;;;9.83;6.35;;;;;;;7.16;63.88;101497.61;1724033;81;21167;-61
2021/05/10 01:01:57;;;;;;;11.03;7.25;;;;;;;7.11;64.06;101499.59;1659758;83;21184;-60
2021/05/10 01:04:24;;;;;;;10.58;6.75;;;;;;;7.03;64.29;101497.33;1745782;82;21647;-60
2021/05/10 01:06:52;;;;;;;14.33;7.08;;;;;;;6.93;64.54;101501.30;1751216;80;21599;-63
2021/05/10 01:09:19;;;;;;;10.40;6.40;;;;;;;6.91;64.75;101499.23;1753622;80;21563;-59
2021/05/10 01:11:47;;;;;;;12.00;5.67;;;;;;;6.98;64.80;101503.72;1749880;80;21208;-60
2021/05/10 01:14:14;;;;;;;15.78;7.30;;;;;;;6.99;65.00;101502.78;1709744;81;21977;-60
2021/05/10 01:16:42;;;;;;;12.85;7.35;;;;;;;7.00;65.22;101504.48;1718066;82;21227;-62
2021/05/10 01:19:09;;;;;;;13.85;7.62;;;;;;;6.97;65.42;101495.46;1743616;80;21212;-63
2021/05/10 01:21:37;;;;;;;13.18;7.78;;;;;;;6.98;65.41;101498.48;1713434;82;21121;-61
2021/05/10 01:24:05;;;;;;;12.40;7.83;;;;;;;6.97;65.33;101499.39;1729419;80;21517;-60
2021/05/10 01:26:32;;;;;;;12.88;8.30;;;;;;;6.94;65.20;101500.36;1733792;80;21897;-61
2021/05/10 01:28:59;;;;;;;13.20;7.30;;;;;;;6.92;65.33;101500.06;1739157;80;21171;-61
2021/05/10 01:31:27;;;;;;;11.18;7.50;;;;;;;6.88;65.19;101508.05;1735157;80;21168;-62
2021/05/10 01:33:55;;;;;;;10.58;7.37;;;;;;;6.87;65.15;101504.20;1739364;80;21148;-67
2021/05/10 01:36:22;;;;;;;11.88;7.47;;;;;;;6.87;65.05;101508.96;1738792;80;21205;-62
2021/05/10 01:38:50;;;;;;;14.68;8.70;;;;;;;6.86;65.24;101509.90;1733150;81;21268;-65
2021/05/10 01:41:17;;;;;;;15.30;8.73;;;;;;;6.85;65.14;101517.34;1746384;80;21236;-60
2021/05/10 01:43:45;;;;;;;11.25;7.40;;;;;;;6.83;65.22;101513.96;1713490;80;21198;-62
2021/05/10 01:46:13;;;;;;;10.72;7.47;;;;;;;6.88;65.23;101517.21;1745981;80;21138;-60
2021/05/10 01:48:40;;;;;;;13.88;8.05;;;;;;;6.90;65.33;101522.38;1732642;81;21168;-61
2021/05/10 01:51:08;;;;;;;15.43;9.33;;;;;;;6.89;65.25;101523.28;1739527;80;21202;-60
2021/05/10 01:53:36;;;;;;;13.35;8.88;;;;;;;6.85;65.19;101526.50;1708167;82;21154;-60
2021/05/10 01:56:04;;;;;;;12.98;8.18;;;;;;;6.80;64.91;101533.72;1738041;80;21160;-60
2021/05/10 01:58:32;;;;;;;15.50;8.80;;;;;;;6.77;64.64;101532.55;1723294;81;21137;-61
2021/05/10 02:00:59;;;;;;;16.00;9.45;;;;;;;6.75;64.46;101537.48;1739341;80;21141;-60
2021/05/10 02:03:27;;;;;;;13.95;8.75;;;;;;;6.69;64.33;101533.35;1731482;80;22377;-61
2021/05/10 02:05:55;;;;;;;12.63;8.43;;;;;;;6.63;64.43;101532.34;1718988;82;21183;-60
2021/05/10 02:08:22;;;;;;;12.60;7.20;;;;;;;6.58;64.53;101537.77;1756161;79;21168;-62
2021/05/10 02:10:52;;;;;;;13.65;7.83;;;;;;;6.55;64.55;101539.68;1694355;83;21176;-60
2021/05/10 02:13:22;;;;;;;12.68;9.03;;;;;;;6.50;64.45;101536.80;1756008;80;21157;-62
2021/05/10 02:15:58;;;;;;;12.40;8.08;;;;;;;6.44;64.49;101538.39;1750490;79;21213;-61
2021/05/10 02:18:29;;;;;;;12.82;8.05;;;;;;;6.38;64.56;101541.27;1758689;80;21192;-60
2021/05/10 02:20:57;;;;;;;13.35;8.45;;;;;;;6.30;64.66;101544.67;1760672;80;21163;-60
2021/05/10 02:23:27;;;;;;;11.73;6.85;;;;;;;6.30;64.97;101540.75;1719062;80;21189;-60
2021/05/10 02:25:58;;;;;;;13.28;8.58;;;;;;;6.41;64.78;101548.14;1672392;83;21205;-61
2021/05/10 02:28:27;;;;;;;11.88;7.83;;;;;;;6.50;64.47;101543.33;1757604;80;21369;-62
2021/05/10 02:30:56;;;;;;;16.05;9.75;;;;;;;6.53;64.52;101546.75;1740378;80;21204;-59
2021/05/10 02:33:27;;;;;;;14.93;10.13;;;;;;;6.51;64.70;101554.19;1750716;80;21172;-59
2021/05/10 02:35:56;;;;;;;14.60;9.55;;;;;;;6.50;65.00;101555.56;1739569;80;21200;-59
2021/05/10 02:38:24;;;;;;;17.25;9.95;;;;;;;6.45;65.44;101556.23;1752231;80;21153;-60
2021/05/10 02:40:51;;;;;;;17.82;11.90;;;;;;;6.40;65.66;101552.97;1738700;80;21184;-64
2021/05/10 02:43:21;;;;;;;18.92;10.25;;;;;;;6.35;65.67;101557.55;1714477;83;21193;-59
2021/05/10 02:45:48;;;;;;;18.27;11.08;;;;;;;6.30;65.64;101559.05;1756074;79;21180;-61
2021/05/10 02:48:16;;;;;;;19.10;12.07;;;;;;;6.27;65.67;101558.74;1756338;79;21152;-65
2021/05/10 02:50:43;;;;;;;17.32;11.35;;;;;;;6.28;65.79;101560.42;1746678;80;21785;-62
2021/05/10 02:53:11;;;;;;;18.87;11.25;;;;;;;6.28;65.76;101558.27;1694097;82;21427;-62
2021/05/10 02:55:39;;;;;;;14.60;9.95;;;;;;;6.29;65.73;101556.06;1757778;80;21619;-62
2021/05/10 02:58:06;;;;;;;14.68;8.38;;;;;;;6.34;65.67;101561.94;1697067;84;21165;-60
2021/05/10 03:00:34;;;;;;;13.43;9.05;;;;;;;6.48;65.49;101563.94;1686200;83;21173;-60
2021/05/10 03:03:01;;;;;;;15.18;9.50;;;;;;;6.58;65.47;101565.23;1691370;82;21197;-61
2021/05/10 03:05:30;;;;;;;16.17;9.85;;;;;;;6.67;65.42;101565.27;1690751;82;21207;-60
2021/05/10 03:07:58;;;;;;;20.10;11.55;;;;;;;6.73;65.32;101569.41;1753125;80;21240;-59
2021/05/10 03:10:26;;;;;;;16.30;10.30;;;;;;;6.76;65.26;101569.23;1747090;80;21599;-60
2021/05/10 03:12:55;;;;;;;15.45;9.63;;;;;;;6.78;65.49;101567.42;1746953;80;21219;-61
2021/05/10 03:15:22;;;;;;;13.43;9.55;;;;;;;6.79;65.54;101568.67;1712403;82;21164;-63
2021/05/10 03:17:51;;;;;;;13.60;9.23;;;;;;;6.79;65.75;101575.64;1694177;80;21169;-61
2021/05/10 03:20:21;;;;;;;16.65;9.70;;;;;;;6.76;65.92;101575.34;1741278;80;21149;-60
2021/05/10 03:22:52;;;;;;;15.10;9.65;;;;;;;6.75;66.09;101578.86;1739589;80;21101;-61
2021/05/10 03:25:22;;;;;;;12.05;8.43;;;;;;;6.75;66.16;101577.55;1737136;80;21239;-60
2021/05/10 03:27:51;;;;;;;14.25;9.05;;;;;;;6.79;66.17;101577.82;1704080;82;21141;-60
2021/05/10 03:30:21;;;;;;;14.53;9.48;;;;;;;6.93;65.99;101585.51;1702507;80;21240;-62
2021/05/10 03:32:50;;;;;;;14.35;9.03;;;;;;;7.01;65.97;101582.05;1738616;80;21184;-61
2021/05/10 03:35:17;;;;;;;17.27;9.95;;;;;;;7.11;66.04;101583.80;1745215;80;21603;-59
2021/05/10 03:37:45;;;;;;;15.50;9.33;;;;;;;7.16;66.23;101587.05;1738566;80;21192;-61
2021/05/10 03:40:16;;;;;;;15.40;10.25;;;;;;;7.20;66.26;101583.38;1706922;82;21188;-61
2021/05/10 03:42:45;;;;;;;14.38;9.48;;;;;;;7.25;66.20;101594.48;1691606;82;21516;-61
2021/05/10 03:45:14;;;;;;;14.78;9.03;;;;;;;7.27;66.20;101593.95;1666189;82;21686;-61
2021/05/10 03:47:43;;;;;;;15.08;9.63;;;;;;;7.31;66.36;101605.12;1695221;82;21536;-62
2021/05/10 03:50:18;;;;;;;14.40;8.85;;;;;;;7.34;66.58;101597.97;1685605;83;21136;-60
2021/05/10 03:52:46;;;;;;;16.87;9.90;;;;;;;7.38;66.83;101598.23;1690724;82;21690;-61
2021/05/10 03:55:17;;;;;;;12.98;8.83;;;;;;;7.50;66.79;101606.41;1686494;82;22130;-63
2021/05/10 03:57:45;;;;;;;13.03;8.60;;;;;;;7.67;66.60;101606.93;1693854;82;21208;-61
2021/05/10 04:00:14;;;;;;;14.68;9.88;;;;;;;7.81;66.58;101599.23;1692431;82;21196;-60
2021/05/10 04:02:43;;;;;;;17.02;8.98;;;;;;;7.94;66.52;101609.97;1699604;83;21176;-62
2021/05/10 04:05:27;;;;;;;13.08;8.90;;;;;;;8.01;66.51;101604.80;1662142;85;21615;-62
2021/05/10 04:10:44;;;;;;;15.85;9.55;;;;;;;8.11;66.51;101605.20;1837899;76;22791;-62
2021/05/10 04:15:53;;;;;;;13.95;9.63;;;;;;;8.17;66.77;101611.45;1767565;79;21284;-62
2021/05/10 04:18:21;;;;;;;15.25;10.03;;;;;;;8.19;67.06;101607.81;1799385;79;21025;-61
2021/05/10 04:23:27;;;;;;;12.43;8.13;;;;;;;8.42;67.22;101610.19;1813877;79;21985;-62
2021/05/10 04:25:56;;;;;;;13.32;8.18;;;;;;;8.52;67.20;101616.69;1768152;80;21188;-65
2021/05/10 04:28:24;;;;;;;12.25;8.15;;;;;;;8.67;67.20;101617.66;1755024;80;21222;-61
2021/05/10 04:30:53;;;;;;;12.98;8.58;;;;;;;8.83;67.15;101617.25;1727772;81;21169;-61
2021/05/10 04:33:33;;;;;;;11.12;7.45;;;;;;;8.97;67.16;101620.92;1727419;81;21183;-62
2021/05/10 04:36:00;;;;;;;11.00;8.00;;;;;;;9.04;67.20;101624.42;1753276;80;21120;-62
2021/05/10 04:38:28;;;;;;;12.18;7.47;;;;;;;9.10;67.38;101618.02;1722238;81;21136;-63
2021/05/10 04:40:56;;;;;;;15.13;8.48;;;;;;;9.17;67.34;101626.41;1752430;80;21397;-61
2021/05/10 04:43:23;;;;;;;11.68;7.85;;;;;;;9.22;67.36;101626.53;1752415;80;21168;-60
2021/05/10 04:45:53;;;;;;;12.30;7.75;;;;;;;9.29;67.24;101634.45;1743557;80;21585;-61
2021/05/10 04:48:20;;;;;;;14.35;8.50;;;;;;;9.36;67.18;101629.70;1750015;80;21159;-61
2021/05/10 04:50:48;;;;;;;10.10;6.78;;;;;;;9.43;67.02;101631.09;1721551;81;21133;-60
2021/05/10 04:53:15;;;;;;;11.73;6.30;;;;;;;9.56;66.80;101627.30;1726470;81;21286;-61
2021/05/10 04:55:43;;;;;;;13.68;7.25;;;;;;;9.77;66.55;101629.67;1716796;80;21188;-61
2021/05/10 04:58:10;;;;;;;9.53;6.20;;;;;;;9.95;66.17;101635.64;1752250;80;21137;-61
2021/05/10 05:00:38;;;;;;;11.97;6.40;;;;;;;10.08;65.90;101634.00;1763100;80;21631;-62
2021/05/10 05:03:05;;;;;;;9.95;6.50;;;;;;;10.20;65.78;101638.56;1726611;81;21210;-62
2021/05/10 05:05:32;;;;;;;11.68;7.17;;;;;;;10.32;65.73;101634.84;1754935;80;22483;-62
2021/05/10 05:08:00;;;;;;;9.68;5.28;;;;;;;10.40;65.41;101633.92;1758599;80;21199;-60
2021/05/10 05:10:27;;;;;;;9.25;5.62;;;;;;;10.47;65.04;101639.19;1752220;80;21187;-64
2021/05/10 05:12:55;;;;;;;10.00;6.12;;;;;;;10.52;64.39;101639.80;1754599;80;21171;-65
2021/05/10 05:15:22;;;;;;;9.20;5.92;;;;;;;10.59;63.77;101644.19;1757737;80;21168;-61
2021/05/10 05:17:50;;;;;;;10.13;5.67;;;;;;;10.64;63.73;101641.29;1744029;80;21209;-66
2021/05/10 05:20:18;;;;;;;10.93;5.87;;;;;;;10.68;63.25;101644.13;1758499;80;21215;-62
2021/05/10 05:22:46;;;;;;;8.90;5.22;;;;;;;10.72;62.95;101645.15;1769883;80;21623;-60
2021/05/10 05:25:14;;;;;;;9.55;4.85;;;;;;;10.83;62.49;101641.88;1746953;80;21905;-60
2021/05/10 05:27:41;;;;;;;7.78;5.03;;;;;;;11.01;61.93;101641.67;1762963;80;21249;-63
2021/05/10 05:30:10;;;;;;;10.15;4.67;;;;;;;11.17;61.43;101641.11;1741149;80;21390;-62
2021/05/10 05:32:38;;;;;;;7.95;5.20;;;;;;;11.30;61.09;101639.40;1742442;81;21129;-59
2021/05/10 05:35:07;;;;;;;10.13;5.65;;;;;;;11.41;60.53;101641.34;1729556;80;21153;-60
2021/05/10 05:37:35;;;;;;;7.85;4.47;;;;;;;11.53;60.24;101643.22;1747293;81;21591;-63
2021/05/10 05:40:04;;;;;;;8.28;5.10;;;;;;;11.64;59.44;101648.27;1681651;83;21137;-61
2021/05/10 05:42:31;;;;;;;7.25;4.30;;;;;;;11.70;58.71;101642.58;1702768;83;22301;-59
2021/05/10 05:45:01;;;;;;;11.33;5.08;;;;;;;11.78;57.25;101644.73;1720978;81;21176;-61
2021/05/10 05:47:29;;;;;;;7.70;4.10;;;;;;;11.87;57.84;101640.19;1740430;81;21535;-60
2021/05/10 05:49:57;;;;;;;7.58;3.62;;;;;;;11.94;57.56;101641.50;1741653;81;21153;-60
2021/05/10 05:52:25;;;;;;;7.05;3.80;;;;;;;12.01;56.84;101644.10;1738348;80;21156;-64
2021/05/10 05:54:53;;;;;;;7.80;3.62;;;;;;;12.08;56.03;101636.14;1740985;81;21576;-59
2021/05/10 05:57:21;;;;;;;8.08;3.85;;;;;;;12.14;55.55;101638.00;1721195;80;21172;-59
2021/05/10 05:59:48;;;;;;;6.65;3.47;;;;;;;12.19;55.35;101643.36;1710815;82;21817;-62
2021/05/10 06:02:15;;;;;;;6.10;3.30;;;;;;;12.25;55.01;101639.45;1742044;80;21181;-61
2021/05/10 06:04:43;;;;;;;7.83;3.08;;;;;;;12.29;54.35;101639.64;1740655;81;21192;-61
2021/05/10 06:07:12;;;;;;;6.17;3.12;;;;;;;12.35;54.14;101631.77;1739708;80;21322;-61
2021/05/10 06:09:39;;;;;;;6.17;3.40;;;;;;;12.41;53.58;101636.16;1726648;81;21624;-61
2021/05/10 06:12:07;;;;;;;5.87;3.10;;;;;;;12.49;53.81;101643.56;1739705;80;21144;-66
2021/05/10 06:14:34;;;;;;;6.60;2.87;;;;;;;12.59;53.87;101645.08;1740475;81;21636;-60
2021/05/10 06:17:03;;;;;;;6.47;2.70;;;;;;;12.66;53.87;101641.09;1683445;83;21207;-62
2021/05/10 06:19:33;;;;;;;7.83;3.00;;;;;;;12.75;53.09;101640.92;1740319;80;21403;-62
2021/05/10 06:22:00;;;;;;;5.03;2.20;;;;;;;12.82;51.92;101640.86;1736506;81;21180;-63
2021/05/10 06:24:28;;;;;;;5.22;2.42;;;;;;;12.90;51.68;101642.98;1736572;81;21207;-60
2021/05/10 06:26:55;;;;;;;5.47;2.27;;;;;;;12.98;51.07;101642.81;1734359;81;21104;-61
2021/05/10 06:29:23;;;;;;;7.92;2.72;;;;;;;13.06;50.94;101641.41;1728328;80;21247;-60
2021/05/10 06:31:50;;;;;;;9.03;2.47;;;;;;;13.15;50.49;101637.65;1737946;81;21664;-61
2021/05/10 06:34:18;;;;;;;6.20;2.55;;;;;;;13.24;49.13;101643.24;1730766;80;21177;-61
2021/05/10 06:36:46;;;;;;;5.17;2.27;;;;;;;13.30;48.71;101639.68;1719350;82;21160;-62
2021/05/10 06:39:14;;;;;;;5.67;2.10;;;;;;;13.37;48.25;101638.80;1731126;81;21186;-61
2021/05/10 06:41:41;;;;;;;4.45;1.70;;;;;;;13.43;47.48;101646.30;1735753;80;21171;-62
2021/05/10 06:44:08;;;;;;;4.95;1.92;;;;;;;13.47;47.12;101639.82;1731844;82;22336;-62
2021/05/10 06:46:35;;;;;;;5.17;2.10;;;;;;;13.55;46.30;101645.41;1735720;81;21148;-60
2021/05/10 06:49:03;;;;;;;4.20;1.92;;;;;;;13.63;46.24;101643.50;1735614;81;21177;-61
2021/05/10 06:51:33;;;;;;;5.08;1.95;;;;;;;13.73;45.87;101642.36;1735439;80;21204;-62
2021/05/10 06:54:00;;;;;;;4.33;1.65;;;;;;;13.81;44.97;101640.48;1729923;80;21125;-61
2021/05/10 06:56:27;;;;;;;4.42;1.55;;;;;;;13.85;44.26;101644.58;1733791;80;21220;-62
2021/05/10 06:58:55;;;;;;;3.58;1.17;;;;;;;13.89;43.77;101646.89;1740748;81;21789;-61
2021/05/10 07:01:22;;;;;;;2.90;1.00;;;;;;;13.98;42.94;101648.50;1715415;81;21802;-65
2021/05/10 07:03:50;;;;;;;3.55;1.40;;;;;;;14.06;41.46;101645.63;1730322;81;21192;-61
2021/05/10 07:06:18;;;;;;;3.77;1.10;;;;;;;14.17;41.11;101643.98;1735660;81;21149;-61
2021/05/10 07:08:45;;;;;;;3.72;1.30;;;;;;;14.23;40.14;101636.91;1714277;81;22525;-68
2021/05/10 07:11:13;;;;;;;5.67;1.55;;;;;;;14.28;40.89;101636.91;1682015;82;21203;-65
2021/05/10 07:13:40;;;;;;;4.65;1.45;;;;;;;14.34;40.37;101638.73;1739312;81;21190;-62
2021/05/10 07:16:08;;;;;;;3.80;1.25;;;;;;;14.40;40.24;101644.41;1713002;82;21193;-62
2021/05/10 07:18:36;;;;;;;5.22;1.60;;;;;;;14.47;39.88;101646.11;1740643;81;21148;-60
2021/05/10 07:21:04;;;;;;;3.45;1.20;;;;;;;14.53;39.86;101640.84;1742762;81;21227;-60
2021/05/10 07:23:34;;;;;;;2.58;0.78;;;;;;;14.59;38.56;101633.30;1708093;82;21210;-60
2021/05/10 07:26:01;;;;;;;3.30;1.10;;;;;;;14.63;38.29;101627.28;1718475;82;21172;-61
2021/05/10 07:28:30;;;;;;;3.27;1.10;;;;;;;14.68;39.21;101628.59;1709956;82;21141;-61
2021/05/10 07:30:58;;;;;;;4.12;1.30;;;;;;;14.77;38.73;101631.50;1741839;81;21112;-66
2021/05/10 07:33:25;;;;;;;2.98;1.00;;;;;;;14.85;37.84;101630.42;1696109;82;22656;-62
2021/05/10 07:35:53;;;;;;;3.35;1.30;;;;;;;14.90;37.07;101624.27;1661177;84;21222;-61
2021/05/10 07:38:20;;;;;;;2.70;1.00;;;;;;;14.96;36.25;101621.15;1674892;84;21697;-62
2021/05/10 07:40:48;;;;;;;2.50;0.70;;;;;;;15.01;34.97;101618.11;1687485;82;21197;-62
2021/05/10 07:43:15;;;;;;;3.12;1.45;;;;;;;15.05;34.85;101618.25;1691106;83;21193;-63
2021/05/10 07:45:43;;;;;;;3.42;1.10;;;;;;;15.12;36.52;101612.81;1669829;83;21208;-63
2021/05/10 07:48:10;;;;;;;2.92;0.93;;;;;;;15.22;35.39;101612.92;1673828;83;21264;-63
2021/05/10 07:50:39;;;;;;;4.47;1.20;;;;;;;15.25;34.56;101614.00;1655459;85;21160;-67
2021/05/10 07:53:06;;;;;;;2.47;0.90;;;;;;;15.28;35.20;101606.27;1689002;83;21172;-64
2021/05/10 07:55:37;;;;;;;2.15;0.75;;;;;;;15.34;34.49;101601.31;1686526;83;21222;-66
2021/05/10 07:58:04;;;;;;;2.92;0.88;;;;;;;15.36;33.52;101599.37;1690976;83;22215;-64
2021/05/10 08:00:37;;;;;;;2.85;1.10;;;;;;;15.37;33.81;101599.75;1693878;83;21148;-63
2021/05/10 08:05:45;;;;;;;3.47;1.07;;;;;;;15.42;33.71;101590.93;1878895;74;22669;-63
2021/05/10 08:08:15;;;;;;;2.80;1.00;;;;;;;15.41;34.37;101592.38;1849652;77;21163;-62
2021/05/10 08:10:45;;;;;;;3.00;1.12;;;;;;;15.41;33.30;101609.13;1808219;76;21305;-61
2021/05/10 08:13:12;;;;;;;3.02;1.02;;;;;;;15.38;33.55;101604.09;1845643;76;21886;-63
2021/05/10 08:15:42;;;;;;;3.00;1.05;;;;;;;15.46;33.60;101604.78;1847260;77;21191;-62
2021/05/10 08:18:11;;;;;;;2.42;0.75;;;;;;;15.55;33.58;101600.53;1798436;77;21151;-63
2021/05/10 08:20:43;;;;;;;4.45;1.00;;;;;;;15.63;33.78;101595.44;1815038;77;21536;-64
2021/05/10 08:23:11;;;;;;;2.70;1.05;;;;;;;15.73;32.88;101596.86;1780541;79;21204;-64
2021/05/10 08:25:41;;;;;;;2.40;0.90;;;;;;;15.79;33.57;101595.06;1768380;79;21180;-64
2021/05/10 08:28:09;;;;;;;2.10;0.70;;;;;;;15.80;32.59;101595.40;1778623;79;21212;-65
2021/05/10 08:30:37;;;;;;;2.42;0.90;;;;;;;15.81;32.61;101590.95;1763824;79;21172;-67
2021/05/10 08:33:05;;;;;;;3.22;0.93;;;;;;;15.84;31.78;101589.37;1765796;79;21194;-65
2021/05/10 08:35:32;;;;;;;3.10;1.20;;;;;;;15.83;32.07;101590.34;1767556;79;21612;-63
2021/05/10 08:38:02;;;;;;;4.58;1.42;;;;;;;15.83;32.90;101586.36;1768504;79;21192;-64
2021/05/10 08:40:29;;;;;;;3.42;1.20;;;;;;;15.86;32.73;101578.14;1765515;79;21587;-64
2021/05/10 08:42:58;;;;;;;3.10;1.05;;;;;;;15.94;33.10;101575.20;1763450;79;21148;-65
2021/05/10 08:45:28;;;;;;;3.30;1.35;;;;;;;16.06;32.94;101564.03;1726151;79;21136;-64
2021/05/10 08:48:00;;;;;;;4.42;1.32;;;;;;;16.16;33.03;101563.60;1732157;80;22811;-65
2021/05/10 08:50:28;;;;;;;3.25;1.27;;;;;;;16.23;33.58;101558.61;1766715;79;21638;-64
2021/05/10 08:52:56;;;;;;;3.75;1.50;;;;;;;16.30;32.52;101549.14;1765465;79;21202;-65
2021/05/10 08:55:24;;;;;;;4.72;1.40;;;;;;;16.31;32.55;101550.83;1737513;81;21140;-64
2021/05/10 08:57:51;;;;;;;3.70;1.47;;;;;;;16.34;33.73;101555.89;1777591;80;21690;-65
2021/05/10 09:00:22;;;;;;;3.75;1.20;;;;;;;16.43;33.07;101544.95;1765986;79;21215;-61
2021/05/10 09:03:08;;;;;;;3.87;1.47;;;;;;;16.50;34.05;101541.27;1727438;81;21216;-61
2021/05/10 09:05:50;;;;;;;3.70;1.22;;;;;;;16.53;35.13;101541.02;1765566;79;21201;-61
2021/05/10 09:08:18;;;;;;;3.47;1.20;;;;;;;16.58;33.33;101542.78;1735295;80;21681;-62
2021/05/10 09:11:08;;;;;;;3.98;1.32;;;;;;;16.57;33.03;101531.78;1768619;80;21115;-61
2021/05/10 09:13:55;;;;;;;3.65;1.25;;;;;;;16.59;33.24;101538.30;1779690;78;21378;-61
2021/05/10 09:16:22;;;;;;;4.65;1.40;;;;;;;16.65;33.21;101529.80;1758768;80;21186;-62
2021/05/10 09:18:58;;;;;;;5.40;1.35;;;;;;;16.65;32.47;101527.97;1781745;78;21185;-61
2021/05/10 09:21:29;;;;;;;3.33;1.22;;;;;;;16.68;33.17;101529.03;1738023;79;21215;-62
2021/05/10 09:24:00;;;;;;;2.57;0.80;;;;;;;16.79;32.88;101526.75;1781500;78;21152;-61
2021/05/10 09:26:35;;;;;;;2.58;0.98;;;;;;;16.90;31.59;101529.34;1735172;79;21227;-61
2021/05/10 09:29:03;;;;;;;3.22;1.22;;;;;;;17.02;31.08;101519.92;1756219;80;21430;-64
2021/05/10 09:31:31;;;;;;;3.08;0.95;;;;;;;17.13;30.62;101520.28;1735804;81;21502;-62
2021/05/10 09:33:59;;;;;;;3.05;0.90;;;;;;;17.16;30.60;101522.67;1760058;78;21116;-61
2021/05/10 09:36:40;;;;;;;3.47;1.10;;;;;;;17.14;29.72;101519.31;1776038;78;22251;-62
2021/05/10 09:39:29;;;;;;;3.12;1.15;;;;;;;17.13;29.92;101525.13;1765256;80;21195;-63
2021/05/10 09:42:02;;;;;;;3.72;1.10;;;;;;;17.11;29.67;101516.42;1764125;79;21172;-62
2021/05/10 09:44:43;;;;;;;3.05;1.07;;;;;;;17.05;29.57;101509.02;1749657;80;21175;-62
2021/05/10 09:47:10;;;;;;;1.98;0.80;;;;;;;16.99;29.44;101501.58;1776770;78;21179;-65
2021/05/10 09:49:50;;;;;;;2.37;0.93;;;;;;;16.90;28.58;101500.09;1772086;79;21540;-62
2021/05/10 09:52:23;;;;;;;2.62;1.02;;;;;;;16.90;28.68;101502.75;1767197;79;21194;-64
2021/05/10 09:54:58;;;;;;;4.83;1.30;;;;;;;16.96;28.44;101494.70;1787243;78;21119;-62
2021/05/10 09:57:29;;;;;;;3.25;1.22;;;;;;;17.00;29.94;101496.12;1733254;80;21156;-61
2021/05/10 10:00:19;;;;;;;2.70;0.75;;;;;;;17.03;29.59;101491.01;1749707;78;21602;-62
2021/05/10 10:02:47;;;;;;;3.27;1.25;;;;;;;17.06;29.61;101491.60;1738400;80;21211;-62
2021/05/10 10:05:16;;;;;;;3.22;1.15;;;;;;;17.07;29.64;101483.12;1766860;80;22291;-63
2021/05/10 10:07:44;;;;;;;2.80;1.00;;;;;;;17.07;30.74;101475.98;1746867;81;21202;-62
2021/05/10 10:10:13;;;;;;;3.40;1.15;;;;;;;17.13;29.54;101477.27;1769733;80;21191;-63
2021/05/10 10:12:40;;;;;;;3.33;1.25;;;;;;;17.16;30.31;101470.80;1769029;80;21152;-62
2021/05/10 10:15:11;;;;;;;3.60;1.25;;;;;;;17.19;29.49;101470.03;1761232;80;21711;-62
2021/05/10 10:17:38;;;;;;;3.40;1.07;;;;;;;17.24;29.71;101465.13;1768818;79;21473;-63
2021/05/10 10:20:10;;;;;;;4.08;1.60;;;;;;;17.31;29.24;101465.91;1794524;78;21237;-61
2021/05/10 10:22:37;;;;;;;3.95;1.40;;;;;;;17.33;29.76;101470.13;1775872;79;21133;-62
2021/05/10 10:25:06;;;;;;;4.28;1.40;;;;;;;17.39;29.77;101472.20;1770645;79;21470;-63
2021/05/10 10:27:35;;;;;;;5.42;1.65;;;;;;;17.42;29.44;101464.45;1760942;79;21764;-62
2021/05/10 10:30:04;;;;;;;3.15;1.22;;;;;;;17.44;29.06;101466.47;1770909;80;21205;-63
2021/05/10 10:32:31;;;;;;;2.65;1.00;;;;;;;17.49;29.01;101460.23;1746073;78;21191;-62
2021/05/10 10:35:00;;;;;;;3.87;1.52;;;;;;;17.54;29.50;101457.16;1764695;79;21183;-63
2021/05/10 10:37:27;;;;;;;3.17;1.20;;;;;;;17.58;29.08;101447.39;1773783;79;21128;-62
2021/05/10 10:40:02;;;;;;;3.67;1.37;;;;;;;17.69;29.74;101443.74;1766559;79;21151;-65
2021/05/10 10:42:30;;;;;;;3.80;1.52;;;;;;;17.78;29.54;101446.03;1763935;80;22170;-64
2021/05/10 10:45:02;;;;;;;4.42;1.60;;;;;;;17.86;29.88;101442.66;1727523;81;21191;-63
2021/05/10 10:47:45;;;;;;;3.85;1.25;;;;;;;17.95;28.70;101441.30;1799207;78;21584;-62
2021/05/10 10:50:16;;;;;;;4.50;1.52;;;;;;;18.04;30.52;101426.30;1736463;81;21650;-63
2021/05/10 10:52:57;;;;;;;4.37;1.82;;;;;;;18.03;28.81;101425.94;1760307;79;21179;-63
2021/05/10 10:55:37;;;;;;;4.22;1.27;;;;;;;18.01;27.48;101424.75;1772255;80;21183;-62
2021/05/10 10:58:20;;;;;;;4.05;1.65;;;;;;;18.03;29.53;101414.45;1774972;80;21577;-66
2021/05/10 11:01:02;;;;;;;4.28;1.50;;;;;;;18.05;28.41;101411.15;1738431;80;21212;-62
2021/05/10 11:03:30;;;;;;;3.98;1.50;;;;;;;18.07;28.99;101407.84;1743938;80;21626;-63
2021/05/10 11:05:57;;;;;;;4.53;1.25;;;;;;;18.14;30.25;101410.25;1762429;79;21175;-62
2021/05/10 11:08:53;;;;;;;4.42;1.20;;;;;;;18.24;30.35;101410.20;1699525;82;22337;-63
2021/05/10 11:11:37;;;;;;;3.98;1.60;;;;;;;18.32;29.12;101404.48;1730485;78;21211;-63
2021/05/10 11:14:14;;;;;;;4.25;1.60;;;;;;;18.36;29.10;101403.22;1727977;81;21216;-62
2021/05/10 11:16:48;;;;;;;3.83;1.35;;;;;;;18.47;28.26;101397.33;1737699;80;21188;-64
2021/05/10 11:19:36;;;;;;;3.55;1.37;;;;;;;18.52;29.14;101395.05;1745979;80;21238;-63
2021/05/10 11:22:32;;;;;;;3.62;1.60;;;;;;;18.58;29.25;101394.45;1775298;79;21246;-64
2021/05/10 11:25:32;;;;;;;3.92;1.52;;;;;;;18.71;29.06;101391.41;1737808;80;21200;-64
2021/05/10 11:28:28;;;;;;;5.42;1.67;;;;;;;18.81;27.93;101382.00;1781163;78;21724;-63
2021/05/10 11:31:04;;;;;;;4.42;1.47;;;;;;;18.87;26.97;101379.59;1730299;80;21183;-63
2021/05/10 11:33:57;;;;;;;4.08;1.52;;;;;;;18.86;26.57;101377.08;1780057;78;21239;-63
2021/05/10 11:36:32;;;;;;;6.47;1.92;;;;;;;18.92;27.64;101373.81;1766815;80;22287;-65
2021/05/10 11:39:09;;;;;;;6.27;2.00;;;;;;;18.94;27.36;101368.66;1769270;79;21468;-63
2021/05/10 11:41:44;;;;;;;6.40;2.12;;;;;;;18.94;28.47;101371.31;1767148;79;21179;-61
2021/05/10 11:44:22;;;;;;;4.67;1.50;;;;;;;18.91;28.15;101366.31;1763501;80;21152;-63
2021/05/10 11:46:53;;;;;;;3.60;1.20;;;;;;;18.88;27.69;101368.45;1770924;80;21835;-64